Terminal Aerodrome Forecast
Issued by NWS

Home | Current Version | Previous Version | Text Only | Print | Product List | Glossary On
Versions: 1 2 3 4 5 6 7 8 9 10 11 12 13 14 15 16 17 18
000
FTUS43 KICT 231726
TAFSLN
TAF
KSLN 231726Z 2318/2418 17011KT P6SM SKC
     FM240600 15013KT P6SM FEW200 WS020/20040KT
     FM241400 17012KT P6SM SCT200
     FM241700 23014G22KT P6SM SCT090=

USA.gov is the U.S. government's official web portal to all federal, state and local government web resources and services.